sensor_id;sensor_type;location;lat;lon;timestamp;P1;durP1;ratioP1;P2;durP2;ratioP2
35847;SDS011;22332;51.954;20.118;2023-03-01T00:03:03;131.50;;;40.90;;
35847;SDS011;22332;51.954;20.118;2023-03-01T00:06:08;120.30;;;38.20;;
35847;SDS011;22332;51.954;20.118;2023-03-01T00:09:15;127.20;;;39.70;;
35847;SDS011;22332;51.954;20.118;2023-03-01T00:12:20;112.60;;;36.40;;
35847;SDS011;22332;51.954;20.118;2023-03-01T00:15:26;110.70;;;37.30;;
35847;SDS011;22332;51.954;20.118;2023-03-01T00:18:31;112.50;;;37.30;;
35847;SDS011;22332;51.954;20.118;2023-03-01T00:21:37;121.00;;;40.50;;
35847;SDS011;22332;51.954;20.118;2023-03-01T00:24:43;102.40;;;36.50;;
35847;SDS011;22332;51.954;20.118;2023-03-01T00:27:49;103.50;;;34.90;;
35847;SDS011;22332;51.954;20.118;2023-03-01T00:30:56;98.00;;;33.50;;
35847;SDS011;22332;51.954;20.118;2023-03-01T00:34:06;102.80;;;36.20;;
35847;SDS011;22332;51.954;20.118;2023-03-01T00:37:13;102.30;;;35.00;;
35847;SDS011;22332;51.954;20.118;2023-03-01T00:40:18;106.80;;;36.50;;
35847;SDS011;22332;51.954;20.118;2023-03-01T00:43:24;103.60;;;34.80;;
35847;SDS011;22332;51.954;20.118;2023-03-01T00:46:30;115.20;;;38.50;;
35847;SDS011;22332;51.954;20.118;2023-03-01T00:49:36;104.10;;;35.30;;
35847;SDS011;22332;51.954;20.118;2023-03-01T00:52:42;92.70;;;32.00;;
35847;SDS011;22332;51.954;20.118;2023-03-01T00:55:48;77.00;;;30.30;;
35847;SDS011;22332;51.954;20.118;2023-03-01T00:58:54;78.20;;;29.10;;
35847;SDS011;22332;51.954;20.118;2023-03-01T01:02:00;77.40;;;28.80;;
35847;SDS011;22332;51.954;20.118;2023-03-01T01:05:06;68.80;;;26.30;;
35847;SDS011;22332;51.954;20.118;2023-03-01T01:08:12;72.60;;;26.30;;
35847;SDS011;22332;51.954;20.118;2023-03-01T01:11:18;66.60;;;24.80;;
35847;SDS011;22332;51.954;20.118;2023-03-01T01:14:25;68.60;;;26.20;;
35847;SDS011;22332;51.954;20.118;2023-03-01T01:17:30;76.30;;;26.40;;
35847;SDS011;22332;51.954;20.118;2023-03-01T01:20:36;85.30;;;30.40;;
35847;SDS011;22332;51.954;20.118;2023-03-01T01:23:42;73.60;;;27.90;;
35847;SDS011;22332;51.954;20.118;2023-03-01T01:26:48;68.40;;;26.60;;
35847;SDS011;22332;51.954;20.118;2023-03-01T01:29:54;68.10;;;27.10;;
35847;SDS011;22332;51.954;20.118;2023-03-01T01:33:00;65.70;;;26.50;;
35847;SDS011;22332;51.954;20.118;2023-03-01T01:36:06;64.60;;;26.00;;
35847;SDS011;22332;51.954;20.118;2023-03-01T01:39:13;69.20;;;26.00;;
35847;SDS011;22332;51.954;20.118;2023-03-01T01:42:18;72.20;;;28.20;;
35847;SDS011;22332;51.954;20.118;2023-03-01T01:45:28;69.30;;;27.10;;
35847;SDS011;22332;51.954;20.118;2023-03-01T01:48:39;67.30;;;25.70;;
35847;SDS011;22332;51.954;20.118;2023-03-01T01:51:48;63.60;;;25.30;;
35847;SDS011;22332;51.954;20.118;2023-03-01T01:55:00;62.90;;;26.40;;
35847;SDS011;22332;51.954;20.118;2023-03-01T01:58:11;58.30;;;23.70;;
35847;SDS011;22332;51.954;20.118;2023-03-01T02:01:19;76.80;;;29.00;;
35847;SDS011;22332;51.954;20.118;2023-03-01T02:04:26;84.50;;;31.90;;
35847;SDS011;22332;51.954;20.118;2023-03-01T02:07:32;82.20;;;30.90;;
35847;SDS011;22332;51.954;20.118;2023-03-01T02:10:38;87.70;;;32.70;;
35847;SDS011;22332;51.954;20.118;2023-03-01T02:13:45;72.00;;;28.00;;
35847;SDS011;22332;51.954;20.118;2023-03-01T02:16:52;64.10;;;24.60;;
35847;SDS011;22332;51.954;20.118;2023-03-01T02:20:05;55.80;;;23.70;;
35847;SDS011;22332;51.954;20.118;2023-03-01T02:26:25;51.80;;;20.90;;
35847;SDS011;22332;51.954;20.118;2023-03-01T02:29:39;54.00;;;23.00;;
35847;SDS011;22332;51.954;20.118;2023-03-01T02:32:46;52.40;;;22.60;;
35847;SDS011;22332;51.954;20.118;2023-03-01T02:35:55;53.00;;;21.50;;
35847;SDS011;22332;51.954;20.118;2023-03-01T02:39:02;52.00;;;22.50;;
35847;SDS011;22332;51.954;20.118;2023-03-01T02:42:10;52.90;;;21.90;;
35847;SDS011;22332;51.954;20.118;2023-03-01T02:45:18;49.80;;;21.10;;
35847;SDS011;22332;51.954;20.118;2023-03-01T02:48:24;51.60;;;21.80;;
35847;SDS011;22332;51.954;20.118;2023-03-01T02:51:41;50.70;;;22.60;;
35847;SDS011;22332;51.954;20.118;2023-03-01T02:54:58;48.80;;;19.80;;
35847;SDS011;22332;51.954;20.118;2023-03-01T02:58:06;47.70;;;20.60;;
35847;SDS011;22332;51.954;20.118;2023-03-01T03:01:12;52.40;;;20.50;;
35847;SDS011;22332;51.954;20.118;2023-03-01T03:04:19;55.40;;;22.30;;
35847;SDS011;22332;51.954;20.118;2023-03-01T03:07:26;46.80;;;20.70;;
35847;SDS011;22332;51.954;20.118;2023-03-01T03:10:32;47.20;;;20.60;;
35847;SDS011;22332;51.954;20.118;2023-03-01T03:13:39;47.80;;;20.20;;
35847;SDS011;22332;51.954;20.118;2023-03-01T03:16:51;47.70;;;19.90;;
35847;SDS011;22332;51.954;20.118;2023-03-01T03:19:57;45.30;;;19.50;;
35847;SDS011;22332;51.954;20.118;2023-03-01T03:23:02;48.30;;;20.90;;
35847;SDS011;22332;51.954;20.118;2023-03-01T03:26:08;48.70;;;20.60;;
35847;SDS011;22332;51.954;20.118;2023-03-01T03:29:16;46.20;;;19.10;;
35847;SDS011;22332;51.954;20.118;2023-03-01T03:32:21;47.50;;;21.00;;
35847;SDS011;22332;51.954;20.118;2023-03-01T03:35:28;43.30;;;19.70;;
35847;SDS011;22332;51.954;20.118;2023-03-01T03:38:35;48.00;;;20.20;;
35847;SDS011;22332;51.954;20.118;2023-03-01T03:41:41;43.50;;;20.30;;
35847;SDS011;22332;51.954;20.118;2023-03-01T03:44:47;40.60;;;18.80;;
35847;SDS011;22332;51.954;20.118;2023-03-01T03:47:53;50.00;;;19.00;;
35847;SDS011;22332;51.954;20.118;2023-03-01T03:50:59;44.40;;;19.20;;
35847;SDS011;22332;51.954;20.118;2023-03-01T03:54:08;42.80;;;18.60;;
35847;SDS011;22332;51.954;20.118;2023-03-01T03:57:14;41.70;;;19.10;;
35847;SDS011;22332;51.954;20.118;2023-03-01T04:00:20;41.70;;;19.30;;
35847;SDS011;22332;51.954;20.118;2023-03-01T04:03:27;39.30;;;18.00;;
35847;SDS011;22332;51.954;20.118;2023-03-01T04:06:34;44.50;;;19.00;;
35847;SDS011;22332;51.954;20.118;2023-03-01T04:09:40;44.10;;;19.30;;
35847;SDS011;22332;51.954;20.118;2023-03-01T04:12:45;42.50;;;18.70;;
35847;SDS011;22332;51.954;20.118;2023-03-01T04:15:51;42.80;;;19.20;;
35847;SDS011;22332;51.954;20.118;2023-03-01T04:18:58;42.50;;;19.20;;
35847;SDS011;22332;51.954;20.118;2023-03-01T04:22:03;41.60;;;18.80;;
35847;SDS011;22332;51.954;20.118;2023-03-01T04:25:12;41.40;;;19.40;;
35847;SDS011;22332;51.954;20.118;2023-03-01T04:28:18;41.10;;;19.00;;
35847;SDS011;22332;51.954;20.118;2023-03-01T04:31:23;43.70;;;18.60;;
35847;SDS011;22332;51.954;20.118;2023-03-01T04:34:29;43.30;;;19.10;;
35847;SDS011;22332;51.954;20.118;2023-03-01T04:37:34;42.00;;;18.50;;
35847;SDS011;22332;51.954;20.118;2023-03-01T04:40:40;36.40;;;18.30;;
35847;SDS011;22332;51.954;20.118;2023-03-01T04:43:46;41.00;;;18.60;;
35847;SDS011;22332;51.954;20.118;2023-03-01T04:46:52;38.60;;;17.80;;
35847;SDS011;22332;51.954;20.118;2023-03-01T04:49:57;71.40;;;27.30;;
35847;SDS011;22332;51.954;20.118;2023-03-01T04:53:03;330.60;;;111.80;;
35847;SDS011;22332;51.954;20.118;2023-03-01T04:56:09;293.50;;;97.60;;
35847;SDS011;22332;51.954;20.118;2023-03-01T04:59:16;137.80;;;53.70;;
35847;SDS011;22332;51.954;20.118;2023-03-01T05:02:25;69.20;;;29.70;;
35847;SDS011;22332;51.954;20.118;2023-03-01T05:05:31;63.00;;;27.80;;
35847;SDS011;22332;51.954;20.118;2023-03-01T05:08:39;64.60;;;29.90;;
35847;SDS011;22332;51.954;20.118;2023-03-01T05:11:45;53.30;;;23.90;;
35847;SDS011;22332;51.954;20.118;2023-03-01T05:14:51;50.70;;;21.80;;
35847;SDS011;22332;51.954;20.118;2023-03-01T05:17:58;50.20;;;21.70;;
35847;SDS011;22332;51.954;20.118;2023-03-01T05:21:05;215.80;;;83.00;;
35847;SDS011;22332;51.954;20.118;2023-03-01T05:24:13;186.20;;;73.40;;
35847;SDS011;22332;51.954;20.118;2023-03-01T05:27:19;105.40;;;43.70;;
35847;SDS011;22332;51.954;20.118;2023-03-01T05:30:25;88.40;;;39.10;;
35847;SDS011;22332;51.954;20.118;2023-03-01T05:33:31;67.30;;;29.20;;
35847;SDS011;22332;51.954;20.118;2023-03-01T05:36:36;73.50;;;29.70;;
35847;SDS011;22332;51.954;20.118;2023-03-01T05:39:42;95.00;;;44.20;;
35847;SDS011;22332;51.954;20.118;2023-03-01T05:42:48;69.50;;;32.90;;
35847;SDS011;22332;51.954;20.118;2023-03-01T05:45:58;74.10;;;31.70;;
35847;SDS011;22332;51.954;20.118;2023-03-01T05:49:07;68.60;;;32.30;;
35847;SDS011;22332;51.954;20.118;2023-03-01T05:52:13;59.60;;;27.90;;
35847;SDS011;22332;51.954;20.118;2023-03-01T05:55:20;51.00;;;23.10;;
35847;SDS011;22332;51.954;20.118;2023-03-01T05:58:26;66.50;;;30.50;;
35847;SDS011;22332;51.954;20.118;2023-03-01T06:01:31;101.50;;;46.30;;
35847;SDS011;22332;51.954;20.118;2023-03-01T06:04:38;61.00;;;26.20;;
35847;SDS011;22332;51.954;20.118;2023-03-01T06:07:43;80.70;;;35.40;;
35847;SDS011;22332;51.954;20.118;2023-03-01T06:10:49;204.20;;;79.60;;
35847;SDS011;22332;51.954;20.118;2023-03-01T06:13:55;148.00;;;55.70;;
35847;SDS011;22332;51.954;20.118;2023-03-01T06:17:00;350.80;;;114.20;;
35847;SDS011;22332;51.954;20.118;2023-03-01T06:20:07;259.30;;;97.50;;
35847;SDS011;22332;51.954;20.118;2023-03-01T06:23:17;138.40;;;58.30;;
35847;SDS011;22332;51.954;20.118;2023-03-01T06:26:22;106.20;;;46.10;;
35847;SDS011;22332;51.954;20.118;2023-03-01T06:29:28;106.30;;;42.90;;
35847;SDS011;22332;51.954;20.118;2023-03-01T06:32:34;173.20;;;63.10;;
35847;SDS011;22332;51.954;20.118;2023-03-01T06:35:40;173.70;;;64.10;;
35847;SDS011;22332;51.954;20.118;2023-03-01T06:38:45;89.90;;;36.60;;
35847;SDS011;22332;51.954;20.118;2023-03-01T06:41:51;122.00;;;44.20;;
35847;SDS011;22332;51.954;20.118;2023-03-01T06:44:56;212.30;;;70.90;;
35847;SDS011;22332;51.954;20.118;2023-03-01T06:48:03;368.00;;;117.50;;
35847;SDS011;22332;51.954;20.118;2023-03-01T06:51:09;468.00;;;133.90;;
35847;SDS011;22332;51.954;20.118;2023-03-01T06:54:15;381.70;;;106.70;;
35847;SDS011;22332;51.954;20.118;2023-03-01T06:57:21;501.10;;;156.40;;
35847;SDS011;22332;51.954;20.118;2023-03-01T07:00:27;551.90;;;152.20;;
35847;SDS011;22332;51.954;20.118;2023-03-01T07:03:33;374.40;;;93.90;;
35847;SDS011;22332;51.954;20.118;2023-03-01T07:06:39;402.20;;;102.70;;
35847;SDS011;22332;51.954;20.118;2023-03-01T07:09:45;235.30;;;68.50;;
35847;SDS011;22332;51.954;20.118;2023-03-01T07:12:53;825.20;;;259.40;;
35847;SDS011;22332;51.954;20.118;2023-03-01T07:16:00;461.70;;;132.80;;
35847;SDS011;22332;51.954;20.118;2023-03-01T07:19:05;395.00;;;107.70;;
35847;SDS011;22332;51.954;20.118;2023-03-01T07:22:11;298.60;;;83.20;;
35847;SDS011;22332;51.954;20.118;2023-03-01T07:25:17;137.70;;;44.30;;
35847;SDS011;22332;51.954;20.118;2023-03-01T07:28:23;439.50;;;135.30;;
35847;SDS011;22332;51.954;20.118;2023-03-01T07:31:30;96.70;;;35.60;;
35847;SDS011;22332;51.954;20.118;2023-03-01T07:34:35;79.10;;;31.70;;
35847;SDS011;22332;51.954;20.118;2023-03-01T07:37:41;132.10;;;49.70;;
35847;SDS011;22332;51.954;20.118;2023-03-01T07:40:47;128.00;;;44.90;;
35847;SDS011;22332;51.954;20.118;2023-03-01T07:43:52;56.80;;;27.90;;
35847;SDS011;22332;51.954;20.118;2023-03-01T07:46:58;73.70;;;35.20;;
35847;SDS011;22332;51.954;20.118;2023-03-01T07:50:04;50.50;;;26.70;;
35847;SDS011;22332;51.954;20.118;2023-03-01T07:53:10;53.70;;;27.60;;
35847;SDS011;22332;51.954;20.118;2023-03-01T07:56:16;50.20;;;26.40;;
35847;SDS011;22332;51.954;20.118;2023-03-01T07:59:22;63.00;;;36.40;;
35847;SDS011;22332;51.954;20.118;2023-03-01T08:02:31;58.60;;;33.30;;
35847;SDS011;22332;51.954;20.118;2023-03-01T08:05:37;74.70;;;38.70;;
35847;SDS011;22332;51.954;20.118;2023-03-01T08:08:43;51.30;;;26.40;;
35847;SDS011;22332;51.954;20.118;2023-03-01T08:11:49;44.90;;;23.30;;
35847;SDS011;22332;51.954;20.118;2023-03-01T08:14:54;41.10;;;21.80;;
35847;SDS011;22332;51.954;20.118;2023-03-01T08:18:00;40.70;;;22.20;;
35847;SDS011;22332;51.954;20.118;2023-03-01T08:21:07;36.20;;;20.20;;
35847;SDS011;22332;51.954;20.118;2023-03-01T08:24:14;45.30;;;23.50;;
35847;SDS011;22332;51.954;20.118;2023-03-01T08:27:20;39.10;;;21.50;;
35847;SDS011;22332;51.954;20.118;2023-03-01T08:30:25;42.50;;;22.10;;
35847;SDS011;22332;51.954;20.118;2023-03-01T08:33:31;38.20;;;20.40;;
35847;SDS011;22332;51.954;20.118;2023-03-01T08:36:37;51.20;;;26.00;;
35847;SDS011;22332;51.954;20.118;2023-03-01T08:39:44;41.50;;;22.30;;
35847;SDS011;22332;51.954;20.118;2023-03-01T08:42:51;35.50;;;19.60;;
35847;SDS011;22332;51.954;20.118;2023-03-01T08:45:56;35.30;;;18.60;;
35847;SDS011;22332;51.954;20.118;2023-03-01T08:49:03;31.30;;;18.70;;
35847;SDS011;22332;51.954;20.118;2023-03-01T08:52:09;30.10;;;17.70;;
35847;SDS011;22332;51.954;20.118;2023-03-01T08:55:15;30.10;;;16.90;;
35847;SDS011;22332;51.954;20.118;2023-03-01T08:58:20;29.70;;;17.60;;
35847;SDS011;22332;51.954;20.118;2023-03-01T09:01:26;26.80;;;16.50;;
35847;SDS011;22332;51.954;20.118;2023-03-01T09:04:32;27.90;;;16.20;;
35847;SDS011;22332;51.954;20.118;2023-03-01T09:07:38;28.80;;;16.20;;
35847;SDS011;22332;51.954;20.118;2023-03-01T09:10:43;33.90;;;19.10;;
35847;SDS011;22332;51.954;20.118;2023-03-01T09:13:49;32.40;;;17.90;;
35847;SDS011;22332;51.954;20.118;2023-03-01T09:16:55;30.00;;;16.70;;
35847;SDS011;22332;51.954;20.118;2023-03-01T09:20:00;30.10;;;16.50;;
35847;SDS011;22332;51.954;20.118;2023-03-01T09:23:08;25.80;;;15.10;;
35847;SDS011;22332;51.954;20.118;2023-03-01T09:26:14;28.50;;;15.00;;
35847;SDS011;22332;51.954;20.118;2023-03-01T09:29:24;28.40;;;15.90;;
35847;SDS011;22332;51.954;20.118;2023-03-01T09:32:31;22.40;;;13.40;;
35847;SDS011;22332;51.954;20.118;2023-03-01T09:35:36;25.20;;;14.00;;
35847;SDS011;22332;51.954;20.118;2023-03-01T09:38:48;29.10;;;16.50;;
35847;SDS011;22332;51.954;20.118;2023-03-01T09:41:57;25.00;;;13.90;;
35847;SDS011;22332;51.954;20.118;2023-03-01T09:45:06;26.00;;;13.60;;
35847;SDS011;22332;51.954;20.118;2023-03-01T09:48:16;20.20;;;12.30;;
35847;SDS011;22332;51.954;20.118;2023-03-01T09:51:27;26.20;;;12.90;;
35847;SDS011;22332;51.954;20.118;2023-03-01T09:54:36;21.50;;;12.70;;
35847;SDS011;22332;51.954;20.118;2023-03-01T09:57:43;21.30;;;12.40;;
35847;SDS011;22332;51.954;20.118;2023-03-01T10:00:53;23.90;;;13.00;;
35847;SDS011;22332;51.954;20.118;2023-03-01T10:04:04;22.00;;;12.70;;
35847;SDS011;22332;51.954;20.118;2023-03-01T10:07:30;27.80;;;14.70;;
35847;SDS011;22332;51.954;20.118;2023-03-01T10:10:46;20.40;;;12.30;;
35847;SDS011;22332;51.954;20.118;2023-03-01T10:13:55;23.20;;;13.20;;
35847;SDS011;22332;51.954;20.118;2023-03-01T10:17:08;20.80;;;12.50;;
35847;SDS011;22332;51.954;20.118;2023-03-01T10:20:22;26.60;;;14.50;;
35847;SDS011;22332;51.954;20.118;2023-03-01T10:23:30;29.80;;;15.60;;
35847;SDS011;22332;51.954;20.118;2023-03-01T10:26:40;34.70;;;16.60;;
35847;SDS011;22332;51.954;20.118;2023-03-01T10:29:54;28.90;;;15.50;;
35847;SDS011;22332;51.954;20.118;2023-03-01T10:33:12;26.00;;;15.20;;
35847;SDS011;22332;51.954;20.118;2023-03-01T10:36:22;40.60;;;21.30;;
35847;SDS011;22332;51.954;20.118;2023-03-01T10:39:28;54.40;;;22.90;;
35847;SDS011;22332;51.954;20.118;2023-03-01T10:42:34;24.50;;;12.40;;
35847;SDS011;22332;51.954;20.118;2023-03-01T10:45:42;117.80;;;51.30;;
35847;SDS011;22332;51.954;20.118;2023-03-01T10:48:50;188.70;;;70.40;;
35847;SDS011;22332;51.954;20.118;2023-03-01T10:52:18;38.40;;;16.90;;
35847;SDS011;22332;51.954;20.118;2023-03-01T10:55:29;22.30;;;12.30;;
35847;SDS011;22332;51.954;20.118;2023-03-01T10:58:39;20.20;;;11.90;;
35847;SDS011;22332;51.954;20.118;2023-03-01T11:02:07;19.30;;;11.30;;
35847;SDS011;22332;51.954;20.118;2023-03-01T11:05:23;22.80;;;12.10;;
35847;SDS011;22332;51.954;20.118;2023-03-01T11:08:32;513.30;;;159.00;;
35847;SDS011;22332;51.954;20.118;2023-03-01T11:11:39;270.40;;;73.00;;
35847;SDS011;22332;51.954;20.118;2023-03-01T11:14:47;47.90;;;16.30;;
35847;SDS011;22332;51.954;20.118;2023-03-01T11:17:54;116.50;;;49.70;;
35847;SDS011;22332;51.954;20.118;2023-03-01T11:21:01;254.00;;;101.50;;
35847;SDS011;22332;51.954;20.118;2023-03-01T11:24:10;98.10;;;34.10;;
35847;SDS011;22332;51.954;20.118;2023-03-01T11:27:20;111.90;;;34.40;;
35847;SDS011;22332;51.954;20.118;2023-03-01T11:30:30;144.10;;;41.00;;
35847;SDS011;22332;51.954;20.118;2023-03-01T11:33:42;594.30;;;200.20;;
35847;SDS011;22332;51.954;20.118;2023-03-01T11:36:53;456.50;;;145.80;;
35847;SDS011;22332;51.954;20.118;2023-03-01T11:40:05;108.50;;;32.20;;
35847;SDS011;22332;51.954;20.118;2023-03-01T11:43:19;31.60;;;13.10;;
35847;SDS011;22332;51.954;20.118;2023-03-01T11:50:14;92.30;;;38.80;;
35847;SDS011;22332;51.954;20.118;2023-03-01T11:53:38;41.40;;;21.10;;
35847;SDS011;22332;51.954;20.118;2023-03-01T11:57:06;23.90;;;13.00;;
35847;SDS011;22332;51.954;20.118;2023-03-01T12:00:33;15.80;;;9.30;;
35847;SDS011;22332;51.954;20.118;2023-03-01T12:03:59;14.50;;;9.60;;
35847;SDS011;22332;51.954;20.118;2023-03-01T12:07:23;14.20;;;8.60;;
35847;SDS011;22332;51.954;20.118;2023-03-01T12:10:37;13.10;;;7.70;;
35847;SDS011;22332;51.954;20.118;2023-03-01T12:17:31;22.30;;;10.20;;
35847;SDS011;22332;51.954;20.118;2023-03-01T12:20:49;15.10;;;7.80;;
35847;SDS011;22332;51.954;20.118;2023-03-01T12:24:09;15.20;;;8.20;;
35847;SDS011;22332;51.954;20.118;2023-03-01T12:27:42;17.20;;;9.20;;
35847;SDS011;22332;51.954;20.118;2023-03-01T12:31:08;13.60;;;8.00;;
35847;SDS011;22332;51.954;20.118;2023-03-01T12:34:34;15.50;;;9.70;;
35847;SDS011;22332;51.954;20.118;2023-03-01T12:37:56;69.60;;;34.30;;
35847;SDS011;22332;51.954;20.118;2023-03-01T12:41:18;30.40;;;21.90;;
35847;SDS011;22332;51.954;20.118;2023-03-01T12:44:39;16.10;;;10.30;;
35847;SDS011;22332;51.954;20.118;2023-03-01T12:48:04;21.40;;;11.00;;
35847;SDS011;22332;51.954;20.118;2023-03-01T12:51:21;15.90;;;9.20;;
35847;SDS011;22332;51.954;20.118;2023-03-01T12:54:31;26.00;;;13.30;;
35847;SDS011;22332;51.954;20.118;2023-03-01T12:57:40;14.60;;;8.50;;
35847;SDS011;22332;51.954;20.118;2023-03-01T13:00:53;13.80;;;8.90;;
35847;SDS011;22332;51.954;20.118;2023-03-01T13:04:17;14.40;;;8.70;;
35847;SDS011;22332;51.954;20.118;2023-03-01T13:10:40;14.60;;;8.60;;
35847;SDS011;22332;51.954;20.118;2023-03-01T13:13:51;16.30;;;9.00;;
35847;SDS011;22332;51.954;20.118;2023-03-01T13:17:33;14.60;;;8.60;;
35847;SDS011;22332;51.954;20.118;2023-03-01T13:20:49;14.90;;;8.80;;
35847;SDS011;22332;51.954;20.118;2023-03-01T13:23:55;18.90;;;10.30;;
35847;SDS011;22332;51.954;20.118;2023-03-01T13:27:18;34.20;;;16.90;;
35847;SDS011;22332;51.954;20.118;2023-03-01T13:30:41;76.40;;;30.10;;
35847;SDS011;22332;51.954;20.118;2023-03-01T13:33:47;828.00;;;339.10;;
35847;SDS011;22332;51.954;20.118;2023-03-01T13:36:54;646.40;;;266.30;;
35847;SDS011;22332;51.954;20.118;2023-03-01T13:44:03;39.10;;;17.00;;
35847;SDS011;22332;51.954;20.118;2023-03-01T13:47:24;24.30;;;12.70;;
35847;SDS011;22332;51.954;20.118;2023-03-01T13:50:33;18.00;;;10.30;;
35847;SDS011;22332;51.954;20.118;2023-03-01T13:53:43;15.90;;;10.00;;
35847;SDS011;22332;51.954;20.118;2023-03-01T13:56:51;447.80;;;169.20;;
35847;SDS011;22332;51.954;20.118;2023-03-01T13:59:56;55.00;;;21.00;;
35847;SDS011;22332;51.954;20.118;2023-03-01T14:03:08;27.10;;;12.80;;
35847;SDS011;22332;51.954;20.118;2023-03-01T14:06:16;25.90;;;13.60;;
35847;SDS011;22332;51.954;20.118;2023-03-01T14:09:25;16.60;;;9.60;;
35847;SDS011;22332;51.954;20.118;2023-03-01T14:12:38;18.70;;;10.30;;
35847;SDS011;22332;51.954;20.118;2023-03-01T14:15:50;15.50;;;9.40;;
35847;SDS011;22332;51.954;20.118;2023-03-01T14:19:13;15.70;;;9.80;;
35847;SDS011;22332;51.954;20.118;2023-03-01T14:22:23;18.10;;;10.70;;
35847;SDS011;22332;51.954;20.118;2023-03-01T14:25:32;22.40;;;11.00;;
35847;SDS011;22332;51.954;20.118;2023-03-01T14:28:39;17.40;;;10.00;;
35847;SDS011;22332;51.954;20.118;2023-03-01T14:31:47;18.20;;;11.50;;
35847;SDS011;22332;51.954;20.118;2023-03-01T14:34:53;18.80;;;11.70;;
35847;SDS011;22332;51.954;20.118;2023-03-01T14:37:59;18.90;;;11.20;;
35847;SDS011;22332;51.954;20.118;2023-03-01T14:41:06;18.10;;;10.60;;
35847;SDS011;22332;51.954;20.118;2023-03-01T14:44:14;16.10;;;10.00;;
35847;SDS011;22332;51.954;20.118;2023-03-01T14:47:27;17.50;;;10.20;;
35847;SDS011;22332;51.954;20.118;2023-03-01T14:50:34;18.20;;;11.00;;
35847;SDS011;22332;51.954;20.118;2023-03-01T14:53:45;20.50;;;12.00;;
35847;SDS011;22332;51.954;20.118;2023-03-01T14:56:53;23.10;;;11.60;;
35847;SDS011;22332;51.954;20.118;2023-03-01T15:00:03;21.70;;;11.60;;
35847;SDS011;22332;51.954;20.118;2023-03-01T15:03:13;19.10;;;11.10;;
35847;SDS011;22332;51.954;20.118;2023-03-01T15:06:24;19.80;;;12.50;;
35847;SDS011;22332;51.954;20.118;2023-03-01T15:09:29;201.10;;;73.70;;
35847;SDS011;22332;51.954;20.118;2023-03-01T15:12:38;526.60;;;232.40;;
35847;SDS011;22332;51.954;20.118;2023-03-01T15:15:44;331.40;;;116.20;;
35847;SDS011;22332;51.954;20.118;2023-03-01T15:18:53;56.10;;;23.80;;
35847;SDS011;22332;51.954;20.118;2023-03-01T15:22:01;35.30;;;16.20;;
35847;SDS011;22332;51.954;20.118;2023-03-01T15:25:16;39.30;;;17.50;;
35847;SDS011;22332;51.954;20.118;2023-03-01T15:28:24;28.20;;;15.10;;
35847;SDS011;22332;51.954;20.118;2023-03-01T15:31:32;23.90;;;13.00;;
35847;SDS011;22332;51.954;20.118;2023-03-01T15:34:41;36.90;;;18.90;;
35847;SDS011;22332;51.954;20.118;2023-03-01T15:37:47;41.40;;;19.80;;
35847;SDS011;22332;51.954;20.118;2023-03-01T15:40:53;88.00;;;31.80;;
35847;SDS011;22332;51.954;20.118;2023-03-01T15:44:00;262.30;;;88.50;;
35847;SDS011;22332;51.954;20.118;2023-03-01T15:47:25;89.40;;;41.60;;
35847;SDS011;22332;51.954;20.118;2023-03-01T15:50:34;372.80;;;134.60;;
35847;SDS011;22332;51.954;20.118;2023-03-01T15:53:42;178.80;;;68.90;;
35847;SDS011;22332;51.954;20.118;2023-03-01T15:56:52;117.60;;;50.40;;
35847;SDS011;22332;51.954;20.118;2023-03-01T15:59:57;174.60;;;85.80;;
35847;SDS011;22332;51.954;20.118;2023-03-01T16:03:03;120.90;;;63.20;;
35847;SDS011;22332;51.954;20.118;2023-03-01T16:06:10;46.70;;;25.60;;
35847;SDS011;22332;51.954;20.118;2023-03-01T16:09:16;30.30;;;16.60;;
35847;SDS011;22332;51.954;20.118;2023-03-01T16:12:22;24.60;;;13.90;;
35847;SDS011;22332;51.954;20.118;2023-03-01T16:15:29;21.70;;;12.00;;
35847;SDS011;22332;51.954;20.118;2023-03-01T16:18:48;20.40;;;11.20;;
35847;SDS011;22332;51.954;20.118;2023-03-01T16:21:54;18.80;;;10.80;;
35847;SDS011;22332;51.954;20.118;2023-03-01T16:25:00;19.50;;;10.20;;
35847;SDS011;22332;51.954;20.118;2023-03-01T16:28:06;18.00;;;9.70;;
35847;SDS011;22332;51.954;20.118;2023-03-01T16:31:12;16.10;;;9.00;;
35847;SDS011;22332;51.954;20.118;2023-03-01T16:34:23;16.70;;;9.70;;
35847;SDS011;22332;51.954;20.118;2023-03-01T16:37:28;20.70;;;9.70;;
35847;SDS011;22332;51.954;20.118;2023-03-01T16:40:37;17.40;;;9.50;;
35847;SDS011;22332;51.954;20.118;2023-03-01T16:43:43;16.50;;;10.00;;
35847;SDS011;22332;51.954;20.118;2023-03-01T16:46:50;17.10;;;9.80;;
35847;SDS011;22332;51.954;20.118;2023-03-01T16:49:55;18.40;;;9.50;;
35847;SDS011;22332;51.954;20.118;2023-03-01T16:53:01;17.20;;;9.70;;
35847;SDS011;22332;51.954;20.118;2023-03-01T16:56:07;21.40;;;9.70;;
35847;SDS011;22332;51.954;20.118;2023-03-01T16:59:14;17.50;;;8.70;;
35847;SDS011;22332;51.954;20.118;2023-03-01T17:02:21;20.70;;;10.50;;
35847;SDS011;22332;51.954;20.118;2023-03-01T17:05:27;16.80;;;8.80;;
35847;SDS011;22332;51.954;20.118;2023-03-01T17:08:33;16.50;;;9.50;;
35847;SDS011;22332;51.954;20.118;2023-03-01T17:11:39;18.70;;;10.20;;
35847;SDS011;22332;51.954;20.118;2023-03-01T17:14:44;18.30;;;9.90;;
35847;SDS011;22332;51.954;20.118;2023-03-01T17:17:50;19.50;;;11.00;;
35847;SDS011;22332;51.954;20.118;2023-03-01T17:20:55;21.80;;;10.60;;
35847;SDS011;22332;51.954;20.118;2023-03-01T17:24:01;32.00;;;18.30;;
35847;SDS011;22332;51.954;20.118;2023-03-01T17:27:07;33.30;;;20.90;;
35847;SDS011;22332;51.954;20.118;2023-03-01T17:30:15;32.90;;;20.50;;
35847;SDS011;22332;51.954;20.118;2023-03-01T17:33:21;33.10;;;18.10;;
35847;SDS011;22332;51.954;20.118;2023-03-01T17:36:27;31.00;;;18.00;;
35847;SDS011;22332;51.954;20.118;2023-03-01T17:39:32;28.10;;;15.80;;
35847;SDS011;22332;51.954;20.118;2023-03-01T17:42:39;25.80;;;14.40;;
35847;SDS011;22332;51.954;20.118;2023-03-01T17:45:44;31.20;;;15.90;;
35847;SDS011;22332;51.954;20.118;2023-03-01T17:48:52;29.50;;;15.10;;
35847;SDS011;22332;51.954;20.118;2023-03-01T17:51:58;26.20;;;14.50;;
35847;SDS011;22332;51.954;20.118;2023-03-01T17:55:04;31.60;;;15.40;;
35847;SDS011;22332;51.954;20.118;2023-03-01T17:58:11;29.50;;;15.90;;
35847;SDS011;22332;51.954;20.118;2023-03-01T18:01:19;33.80;;;17.80;;
35847;SDS011;22332;51.954;20.118;2023-03-01T18:04:25;44.90;;;22.40;;
35847;SDS011;22332;51.954;20.118;2023-03-01T18:07:30;45.90;;;23.00;;
35847;SDS011;22332;51.954;20.118;2023-03-01T18:10:36;49.10;;;24.30;;
35847;SDS011;22332;51.954;20.118;2023-03-01T18:13:42;47.90;;;24.60;;
35847;SDS011;22332;51.954;20.118;2023-03-01T18:16:49;51.30;;;24.60;;
35847;SDS011;22332;51.954;20.118;2023-03-01T18:19:54;52.60;;;24.20;;
35847;SDS011;22332;51.954;20.118;2023-03-01T18:23:00;55.40;;;25.90;;